Time;durP1;ratioP1;P1;durP2;ratioP2;P2;SDS_P1;SDS_P2;PMS_P1;PMS_P2;Temp;Humidity;BMP_temperature;BMP_pressure;BME280_temperature;BME280_humidity;BME280_pressure;Samples;Min_cycle;Max_cycle;Signal;HPM_P1;HPM_P2
2022/07/23 00:00:35;;;;;;;19.08;15.10;;;23.50;62.10;;;;;;5036819;28;20029;-12
2022/07/23 00:03:01;;;;;;;16.08;14.15;;;23.40;62.40;;;;;;5035655;28;20485;-12
2022/07/23 00:05:26;;;;;;;17.83;14.73;;;23.40;62.40;;;;;;5037131;28;20390;-13
2022/07/23 00:07:52;;;;;;;17.23;15.05;;;23.40;62.60;;;;;;5035507;28;20083;-12
2022/07/23 00:10:18;;;;;;;17.88;14.88;;;23.40;62.30;;;;;;5036519;28;20041;-13
2022/07/23 00:12:44;;;;;;;18.80;15.80;;;23.40;62.40;;;;;;5036627;28;20021;-13
2022/07/23 00:15:10;;;;;;;18.80;15.07;;;23.40;62.60;;;;;;5036946;28;20021;-13
2022/07/23 00:17:37;;;;;;;24.92;17.75;;;23.40;62.80;;;;;;5036580;28;20386;-13
2022/07/23 00:20:03;;;;;;;22.27;16.20;;;23.30;62.70;;;;;;5036741;28;20037;-13
2022/07/23 00:22:30;;;;;;;20.25;15.73;;;23.20;62.80;;;;;;5036313;28;20100;-13
2022/07/23 00:24:56;;;;;;;18.25;15.82;;;23.20;62.90;;;;;;5036446;28;20045;-13
2022/07/23 00:27:23;;;;;;;21.95;16.23;;;23.10;62.90;;;;;;5036739;28;20034;-13
2022/07/23 00:29:49;;;;;;;19.23;16.05;;;23.10;63.00;;;;;;5036294;28;20034;-12
2022/07/23 00:32:16;;;;;;;17.25;14.32;;;23.10;63.00;;;;;;5036244;28;20097;-14
2022/07/23 00:34:42;;;;;;;18.52;15.07;;;23.10;63.00;;;;;;5036392;28;20033;-12
2022/07/23 00:37:08;;;;;;;26.02;19.70;;;23.10;62.90;;;;;;5036508;28;20018;-14
2022/07/23 00:39:33;;;;;;;19.00;16.50;;;23.10;63.20;;;;;;5036019;28;20041;-12
2022/07/23 00:41:59;;;;;;;20.73;18.30;;;23.00;63.10;;;;;;5034905;28;20021;-14
2022/07/23 00:44:27;;;;;;;22.25;17.17;;;23.00;63.30;;;;;;5036165;28;20017;-14
2022/07/23 00:46:56;;;;;;;16.75;14.95;;;23.00;63.30;;;;;;5035981;28;20040;-14
2022/07/23 00:49:25;;;;;;;19.00;16.15;;;22.90;63.30;;;;;;5036265;28;20036;-13
2022/07/23 00:51:52;;;;;;;19.60;16.92;;;23.00;63.40;;;;;;5036419;28;20034;-13
2022/07/23 00:54:19;;;;;;;20.35;16.75;;;23.00;63.50;;;;;;5035675;28;20033;-13
2022/07/23 00:56:46;;;;;;;20.15;16.92;;;23.00;63.40;;;;;;5036379;28;20028;-15
2022/07/23 00:59:13;;;;;;;17.52;15.57;;;22.90;63.30;;;;;;5036110;28;20104;-14
2022/07/23 01:01:39;;;;;;;19.55;16.10;;;22.90;63.40;;;;;;5035723;28;20037;-13
2022/07/23 01:04:06;;;;;;;18.63;15.82;;;22.90;63.60;;;;;;5035768;28;20025;-13
2022/07/23 01:06:38;;;;;;;20.70;16.33;;;22.90;63.80;;;;;;5035759;28;20116;-13
2022/07/23 01:09:06;;;;;;;18.83;16.75;;;22.90;64.00;;;;;;5035421;28;20026;-12
2022/07/23 01:11:34;;;;;;;18.17;16.27;;;22.90;64.00;;;;;;5035916;28;20041;-13
2022/07/23 01:14:15;;;;;;;21.77;17.63;;;22.80;64.00;;;;;;5035715;28;20026;-12
2022/07/23 01:16:43;;;;;;;21.08;18.38;;;22.80;64.40;;;;;;5035745;28;20527;-12
2022/07/23 01:19:10;;;;;;;25.38;18.30;;;22.70;64.50;;;;;;5035420;28;20029;-14
2022/07/23 01:21:45;;;;;;;21.77;18.50;;;22.70;64.60;;;;;;5035753;28;20029;-13
2022/07/23 01:24:11;;;;;;;21.23;16.85;;;22.60;64.70;;;;;;5035461;28;20026;-13
2022/07/23 01:26:39;;;;;;;20.88;18.30;;;22.60;64.60;;;;;;5035203;28;20021;-13
2022/07/23 01:29:05;;;;;;;23.10;18.63;;;22.60;64.60;;;;;;5035572;28;20109;-13
2022/07/23 01:31:32;;;;;;;21.15;18.77;;;22.60;64.70;;;;;;5035216;28;20045;-13
2022/07/23 01:33:58;;;;;;;21.35;17.75;;;22.60;64.60;;;;;;5035324;28;20366;-13
2022/07/23 01:36:24;;;;;;;23.05;19.08;;;22.60;64.90;;;;;;5034943;28;20025;-13
2022/07/23 01:38:51;;;;;;;21.65;17.23;;;22.60;65.00;;;;;;5034834;28;20057;-13
2022/07/23 01:41:17;;;;;;;20.67;16.95;;;22.60;64.90;;;;;;5035367;28;20397;-13
2022/07/23 01:43:43;;;;;;;24.67;19.55;;;22.60;64.80;;;;;;5034169;28;20112;-13
2022/07/23 01:46:10;;;;;;;24.00;21.15;;;22.60;64.90;;;;;;5034773;28;20071;-13
2022/07/23 01:48:36;;;;;;;31.98;23.80;;;22.50;65.20;;;;;;5034724;28;20037;-13
2022/07/23 01:51:02;;;;;;;26.45;23.55;;;22.40;65.30;;;;;;5034886;28;20037;-13
2022/07/23 01:53:30;;;;;;;28.83;21.02;;;22.40;65.30;;;;;;5034922;28;20063;-13
2022/07/23 01:55:58;;;;;;;22.73;19.83;;;22.40;65.50;;;;;;5034805;28;20477;-14
2022/07/23 01:58:25;;;;;;;25.52;20.25;;;22.40;65.50;;;;;;5034492;28;20046;-14
2022/07/23 02:00:51;;;;;;;22.27;19.20;;;22.30;65.60;;;;;;5034694;28;20512;-14
2022/07/23 02:03:17;;;;;;;23.25;18.75;;;22.20;65.70;;;;;;5034561;28;20512;-13
2022/07/23 02:05:44;;;;;;;24.98;20.70;;;22.20;65.80;;;;;;5034916;28;20062;-13
2022/07/23 02:08:09;;;;;;;34.25;27.25;;;22.10;65.90;;;;;;5034420;28;20110;-12
2022/07/23 02:10:35;;;;;;;30.88;24.38;;;22.10;66.30;;;;;;5034428;28;20079;-12
2022/07/23 02:13:01;;;;;;;25.15;20.33;;;22.10;66.50;;;;;;5034444;28;20104;-13
2022/07/23 02:15:28;;;;;;;24.63;21.73;;;22.00;66.30;;;;;;5034368;28;20040;-13
2022/07/23 02:17:55;;;;;;;26.10;22.48;;;22.00;66.20;;;;;;5034261;28;20025;-13
2022/07/23 02:20:22;;;;;;;25.38;22.15;;;22.00;66.30;;;;;;5033549;28;20556;-13
2022/07/23 02:22:48;;;;;;;24.00;19.67;;;21.90;66.30;;;;;;5034602;28;20112;-13
2022/07/23 02:25:14;;;;;;;20.42;17.73;;;22.00;66.20;;;;;;5034517;28;20104;-13
2022/07/23 02:27:40;;;;;;;21.58;19.20;;;22.00;65.90;;;;;;5034091;28;20545;-13
2022/07/23 02:30:07;;;;;;;25.92;23.15;;;22.00;65.90;;;;;;5034143;28;20026;-14
2022/07/23 02:32:34;;;;;;;22.95;19.35;;;22.00;66.10;;;;;;5033891;28;20389;-13
2022/07/23 02:35:00;;;;;;;27.27;24.42;;;22.00;66.00;;;;;;5032777;28;20080;-13
2022/07/23 02:37:27;;;;;;;26.20;23.27;;;21.90;66.00;;;;;;5033662;28;20025;-14
2022/07/23 02:39:54;;;;;;;26.67;21.70;;;21.90;66.00;;;;;;5034021;28;20041;-15
2022/07/23 02:42:20;;;;;;;26.10;21.92;;;21.90;66.20;;;;;;5033760;28;20034;-13
2022/07/23 02:44:46;;;;;;;24.90;21.33;;;21.90;66.20;;;;;;5032724;28;20026;-13
2022/07/23 02:47:12;;;;;;;24.02;20.33;;;21.90;66.20;;;;;;5034078;28;20032;-13
2022/07/23 02:49:38;;;;;;;23.13;18.30;;;21.90;66.10;;;;;;5032513;28;20025;-14
2022/07/23 02:52:04;;;;;;;20.67;18.50;;;21.90;66.00;;;;;;5033942;28;20033;-13
2022/07/23 02:54:30;;;;;;;20.90;18.23;;;21.90;65.90;;;;;;5033593;28;20037;-14
2022/07/23 02:56:56;;;;;;;21.40;18.95;;;21.90;66.00;;;;;;5033597;28;20428;-13
2022/07/23 02:59:22;;;;;;;27.48;22.17;;;21.90;66.10;;;;;;5033865;28;20044;-13
2022/07/23 03:01:48;;;;;;;21.98;18.63;;;21.90;66.10;;;;;;5033716;28;20025;-13
2022/07/23 03:04:14;;;;;;;18.85;16.48;;;21.80;66.10;;;;;;5033499;28;20030;-14
2022/07/23 03:06:40;;;;;;;25.40;21.77;;;21.80;66.00;;;;;;5033503;28;20021;-14
2022/07/23 03:09:06;;;;;;;25.65;21.48;;;21.80;65.90;;;;;;5033399;28;20025;-12
2022/07/23 03:11:32;;;;;;;26.40;21.90;;;21.80;66.20;;;;;;5033437;28;20026;-13
2022/07/23 03:13:58;;;;;;;21.70;18.77;;;21.80;66.00;;;;;;5033391;28;20036;-13
2022/07/23 03:16:23;;;;;;;20.33;18.13;;;21.80;66.00;;;;;;5031950;28;20124;-13
2022/07/23 03:18:49;;;;;;;20.25;17.83;;;21.80;65.90;;;;;;5033837;28;20104;-13
2022/07/23 03:21:15;;;;;;;19.92;17.52;;;21.80;65.80;;;;;;5033604;28;20068;-14
2022/07/23 03:23:41;;;;;;;21.02;18.75;;;21.90;66.00;;;;;;5033251;28;20389;-13
2022/07/23 03:26:07;;;;;;;27.10;22.25;;;21.80;66.00;;;;;;5033316;28;20075;-12
2022/07/23 03:28:33;;;;;;;28.20;24.27;;;21.80;66.00;;;;;;5033103;28;20041;-13
2022/07/23 03:30:59;;;;;;;25.58;22.42;;;21.80;66.40;;;;;;5033618;28;20033;-12
2022/07/23 03:33:25;;;;;;;22.10;17.65;;;21.80;66.60;;;;;;5033527;28;20024;-13
2022/07/23 03:35:51;;;;;;;20.92;18.52;;;21.70;66.40;;;;;;5033455;28;20025;-12
2022/07/23 03:38:17;;;;;;;22.13;18.38;;;21.70;66.10;;;;;;5032700;28;20088;-14
2022/07/23 03:40:42;;;;;;;20.40;17.42;;;21.70;66.20;;;;;;5031909;28;20033;-14
2022/07/23 03:43:09;;;;;;;19.95;16.63;;;21.70;66.40;;;;;;5032974;28;20086;-13
2022/07/23 03:45:34;;;;;;;20.27;17.48;;;21.60;66.50;;;;;;5033344;28;20079;-14
2022/07/23 03:48:00;;;;;;;20.80;18.48;;;21.60;66.60;;;;;;5032783;28;20022;-11
2022/07/23 03:50:26;;;;;;;22.58;19.42;;;21.60;66.70;;;;;;5033077;28;20029;-13
2022/07/23 03:52:53;;;;;;;20.88;16.90;;;21.50;67.00;;;;;;5032927;28;20030;-14
2022/07/23 03:55:19;;;;;;;18.58;16.08;;;21.50;67.10;;;;;;5032131;28;20029;-12
2022/07/23 03:57:46;;;;;;;19.83;16.80;;;21.50;66.90;;;;;;5033296;28;20503;-13
2022/07/23 04:00:13;;;;;;;25.65;17.52;;;21.50;67.00;;;;;;5033215;28;20026;-14
2022/07/23 04:02:40;;;;;;;22.30;18.45;;;21.50;67.40;;;;;;5033058;28;20030;-13
2022/07/23 04:05:06;;;;;;;27.60;20.10;;;21.40;67.40;;;;;;5032829;28;20034;-13
2022/07/23 04:07:33;;;;;;;25.52;22.73;;;21.40;67.60;;;;;;5032801;28;20096;-12
2022/07/23 04:09:58;;;;;;;22.60;18.20;;;21.40;67.60;;;;;;5032990;28;20025;-12
2022/07/23 04:12:25;;;;;;;24.05;19.77;;;21.40;67.70;;;;;;5032905;28;20022;-12
2022/07/23 04:14:51;;;;;;;27.13;23.45;;;21.40;67.70;;;;;;5033028;28;20040;-14
2022/07/23 04:17:16;;;;;;;27.38;21.05;;;21.40;67.70;;;;;;5032666;28;20026;-14
2022/07/23 04:19:43;;;;;;;26.75;22.80;;;21.50;67.90;;;;;;5032738;28;20036;-14
2022/07/23 04:22:11;;;;;;;22.50;19.40;;;21.50;67.80;;;;;;5032928;28;20017;-13
2022/07/23 04:24:38;;;;;;;20.80;18.25;;;21.50;67.80;;;;;;5032513;28;20359;-13
2022/07/23 04:27:04;;;;;;;20.63;17.80;;;21.60;67.90;;;;;;5032884;28;20028;-13
2022/07/23 04:29:30;;;;;;;24.00;20.40;;;21.60;67.70;;;;;;5032555;28;20068;-13
2022/07/23 04:31:57;;;;;;;23.20;19.20;;;21.70;68.00;;;;;;5032834;28;20025;-13
2022/07/23 04:34:23;;;;;;;23.10;20.10;;;21.70;67.90;;;;;;5032613;28;20033;-15
2022/07/23 04:36:48;;;;;;;25.15;19.33;;;21.70;67.80;;;;;;5032570;28;20033;-14
2022/07/23 04:39:14;;;;;;;25.38;19.80;;;21.80;67.70;;;;;;5032260;28;20046;-13
2022/07/23 04:41:40;;;;;;;21.42;18.92;;;21.80;67.90;;;;;;5032495;28;20030;-13
2022/07/23 04:44:06;;;;;;;20.88;16.50;;;21.90;67.90;;;;;;5036027;28;20057;-13
2022/07/23 04:46:32;;;;;;;21.77;18.25;;;22.00;68.00;;;;;;5035907;28;20025;-13
2022/07/23 04:48:58;;;;;;;20.10;16.95;;;22.00;67.90;;;;;;5035940;28;20026;-14
2022/07/23 04:51:25;;;;;;;20.73;17.58;;;22.00;67.70;;;;;;5036200;28;20109;-14
2022/07/23 04:53:51;;;;;;;20.80;18.60;;;22.10;67.70;;;;;;5035917;28;20040;-14
2022/07/23 04:56:17;;;;;;;22.17;19.70;;;22.30;68.10;;;;;;5035785;28;20408;-15
2022/07/23 04:58:43;;;;;;;26.23;20.67;;;22.30;68.80;;;;;;5036214;28;20022;-15
2022/07/23 05:01:09;;;;;;;22.10;18.17;;;22.40;68.30;;;;;;5036017;28;20026;-14
2022/07/23 05:03:35;;;;;;;20.75;17.95;;;22.40;68.00;;;;;;5036071;28;20547;-13
2022/07/23 05:06:02;;;;;;;20.95;17.38;;;22.50;67.50;;;;;;5035979;28;20412;-13
2022/07/23 05:08:29;;;;;;;34.13;22.50;;;22.60;67.60;;;;;;5035429;28;20034;-13
2022/07/23 05:10:55;;;;;;;24.40;19.73;;;22.80;67.40;;;;;;5036030;28;20040;-13
2022/07/23 05:13:21;;;;;;;21.92;18.33;;;22.90;67.00;;;;;;5035707;28;20481;-14
2022/07/23 05:15:47;;;;;;;27.00;20.42;;;23.00;66.80;;;;;;5035833;28;20025;-14
2022/07/23 05:18:13;;;;;;;22.02;17.30;;;23.00;66.60;;;;;;5035336;28;20378;-14
2022/07/23 05:20:39;;;;;;;23.95;17.85;;;23.20;66.20;;;;;;5035485;28;20040;-15
2022/07/23 05:23:06;;;;;;;24.08;20.17;;;23.30;66.00;;;;;;5035427;28;20030;-13
2022/07/23 05:25:32;;;;;;;22.52;19.73;;;23.40;66.10;;;;;;5035692;28;20143;-14
2022/07/23 05:27:58;;;;;;;25.58;21.35;;;23.60;65.50;;;;;;5035179;28;20112;-13
2022/07/23 05:30:24;;;;;;;25.95;20.88;;;23.70;65.40;;;;;;5035408;28;20107;-13
2022/07/23 05:32:50;;;;;;;27.63;20.80;;;23.80;65.20;;;;;;5035313;28;20176;-13
2022/07/23 05:35:16;;;;;;;23.90;20.13;;;23.90;65.10;;;;;;5035515;28;20091;-12
2022/07/23 05:37:42;;;;;;;25.63;21.45;;;24.00;65.40;;;;;;5034952;28;20037;-13
2022/07/23 05:40:10;;;;;;;26.75;23.95;;;24.10;66.40;;;;;;5035311;28;20032;-13
2022/07/23 05:42:38;;;;;;;29.90;25.95;;;24.20;67.00;;;;;;5034906;28;20478;-14
2022/07/23 05:45:05;;;;;;;28.77;24.60;;;24.30;67.30;;;;;;5035406;28;20392;-14
2022/07/23 05:47:52;;;;;;;26.85;23.60;;;24.40;67.90;;;;;;5035494;28;20440;-13
2022/07/23 05:50:18;;;;;;;27.05;23.95;;;24.40;67.60;;;;;;5034695;28;20218;-12
2022/07/23 05:52:44;;;;;;;27.85;24.30;;;24.60;66.80;;;;;;5035172;28;20465;-12
2022/07/23 05:55:12;;;;;;;28.55;24.60;;;24.70;66.70;;;;;;5034025;28;20033;-13
2022/07/23 05:57:38;;;;;;;28.05;24.88;;;24.80;66.60;;;;;;5035056;28;20044;-13
2022/07/23 06:00:06;;;;;;;27.98;24.08;;;24.90;66.70;;;;;;5033530;28;20100;-13
2022/07/23 06:02:32;;;;;;;27.83;24.10;;;25.10;66.10;;;;;;5034497;28;20033;-12
2022/07/23 06:04:58;;;;;;;30.88;26.80;;;25.30;65.40;;;;;;5034607;28;20030;-12
2022/07/23 06:07:24;;;;;;;25.92;21.33;;;25.40;65.20;;;;;;5034623;28;20032;-12
2022/07/23 06:09:50;;;;;;;28.15;24.98;;;25.60;64.50;;;;;;5034733;28;20519;-12
2022/07/23 06:12:17;;;;;;;28.98;24.52;;;25.80;64.60;;;;;;5034392;28;20036;-12
2022/07/23 06:14:43;;;;;;;33.35;27.05;;;25.90;63.90;;;;;;5034420;28;20389;-13
2022/07/23 06:17:09;;;;;;;27.25;24.40;;;26.10;63.70;;;;;;5034641;28;20025;-12
2022/07/23 06:19:35;;;;;;;32.30;27.13;;;26.30;63.00;;;;;;5034337;28;20413;-12
2022/07/23 06:22:02;;;;;;;26.38;22.17;;;26.50;62.30;;;;;;5033091;28;20402;-12
2022/07/23 06:24:28;;;;;;;28.67;23.27;;;26.60;61.60;;;;;;5034321;28;20209;-13
2022/07/23 06:26:53;;;;;;;21.58;19.05;;;26.80;61.10;;;;;;5034226;28;20476;-13
2022/07/23 06:29:19;;;;;;;23.35;20.95;;;26.90;61.00;;;;;;5034380;28;20021;-12
2022/07/23 06:31:45;;;;;;;23.67;19.83;;;27.10;60.40;;;;;;5034358;28;20393;-13
2022/07/23 06:34:11;;;;;;;22.08;19.17;;;27.20;59.80;;;;;;5034107;28;20393;-13
2022/07/23 06:36:37;;;;;;;26.20;21.52;;;27.40;59.20;;;;;;5033902;28;20033;-13
2022/07/23 06:39:03;;;;;;;24.35;20.85;;;27.70;58.90;;;;;;5033919;28;20049;-13
2022/07/23 06:41:29;;;;;;;23.50;20.55;;;27.80;58.50;;;;;;5033993;28;20025;-13
2022/07/23 06:43:55;;;;;;;24.23;20.70;;;28.00;58.10;;;;;;5034186;28;20027;-13
2022/07/23 06:46:21;;;;;;;21.42;19.15;;;28.20;57.60;;;;;;5033894;28;20473;-13
2022/07/23 06:48:47;;;;;;;22.73;18.80;;;28.30;57.20;;;;;;5034075;28;20116;-13
2022/07/23 06:51:13;;;;;;;24.52;20.20;;;28.50;57.10;;;;;;5034185;28;20112;-13
2022/07/23 06:53:40;;;;;;;22.17;18.20;;;28.70;56.90;;;;;;5033700;28;20053;-13
2022/07/23 06:56:06;;;;;;;23.50;20.75;;;28.80;56.70;;;;;;5033704;28;20112;-13
2022/07/23 06:58:33;;;;;;;22.88;18.90;;;28.90;56.20;;;;;;5033438;28;20049;-12
2022/07/23 07:00:58;;;;;;;23.35;19.00;;;29.00;56.10;;;;;;5033639;28;20029;-12
2022/07/23 07:03:24;;;;;;;20.73;18.55;;;29.20;55.70;;;;;;5033778;28;20080;-12
2022/07/23 07:05:51;;;;;;;23.48;20.20;;;29.30;55.00;;;;;;5033396;28;20022;-12
2022/07/23 07:08:17;;;;;;;20.48;18.42;;;29.50;54.30;;;;;;5033180;28;20429;-13
2022/07/23 07:10:43;;;;;;;21.95;17.75;;;29.60;53.90;;;;;;5033986;28;20039;-12
2022/07/23 07:13:09;;;;;;;21.83;19.52;;;29.70;53.50;;;;;;5033406;28;20044;-12
2022/07/23 07:15:35;;;;;;;23.30;18.05;;;29.90;53.30;;;;;;5033393;28;20037;-13
2022/07/23 07:18:01;;;;;;;23.75;19.40;;;30.00;52.90;;;;;;5033620;28;20112;-13
2022/07/23 07:20:27;;;;;;;21.70;18.63;;;30.20;52.10;;;;;;5033220;28;20029;-13
2022/07/23 07:22:52;;;;;;;24.10;21.70;;;30.40;51.90;;;;;;5033594;28;20029;-13
2022/07/23 07:25:18;;;;;;;21.02;18.33;;;30.50;51.60;;;;;;5033268;28;20481;-13
2022/07/23 07:27:44;;;;;;;20.95;17.65;;;30.80;50.70;;;;;;5033558;28;20026;-13
2022/07/23 07:30:11;;;;;;;19.88;17.80;;;30.90;50.20;;;;;;5033426;28;20056;-13
2022/07/23 07:32:37;;;;;;;18.92;16.75;;;31.00;49.70;;;;;;5032840;28;20513;-13
2022/07/23 07:35:05;;;;;;;20.70;18.23;;;31.30;49.60;;;;;;5033262;28;20021;-13
2022/07/23 07:37:31;;;;;;;18.35;16.45;;;31.40;48.80;;;;;;5033222;28;20028;-14
2022/07/23 07:39:56;;;;;;;20.33;17.50;;;31.50;48.00;;;;;;5031830;28;20036;-13
2022/07/23 07:42:22;;;;;;;22.95;18.00;;;31.70;48.00;;;;;;5032813;28;20025;-13
2022/07/23 07:44:48;;;;;;;18.08;16.20;;;31.90;48.30;;;;;;5033482;28;20022;-13
2022/07/23 07:47:15;;;;;;;17.45;15.68;;;32.00;48.00;;;;;;5031849;28;20029;-13
2022/07/23 07:49:42;;;;;;;18.42;16.40;;;32.20;47.80;;;;;;5032909;28;20385;-13
2022/07/23 07:52:09;;;;;;;19.00;16.90;;;32.40;47.00;;;;;;5033155;28;20196;-13
2022/07/23 07:54:35;;;;;;;19.20;16.42;;;32.50;46.70;;;;;;5032797;28;20024;-13
2022/07/23 07:57:01;;;;;;;17.40;15.70;;;32.70;46.40;;;;;;5033511;28;20025;-13
2022/07/23 07:59:28;;;;;;;18.15;16.30;;;32.90;45.80;;;;;;5033040;28;20032;-13
2022/07/23 08:01:54;;;;;;;20.15;16.85;;;33.10;44.50;;;;;;5033099;28;20025;-13
2022/07/23 08:04:20;;;;;;;18.83;16.50;;;33.30;44.60;;;;;;5032620;28;20516;-12
2022/07/23 08:06:46;;;;;;;20.85;16.23;;;33.50;44.30;;;;;;5033338;28;20497;-13
2022/07/23 08:09:12;;;;;;;18.08;16.13;;;33.60;43.80;;;;;;5032953;28;20061;-13
2022/07/23 08:11:39;;;;;;;17.63;14.98;;;33.80;44.00;;;;;;5032647;28;20075;-13
2022/07/23 08:14:05;;;;;;;19.05;15.55;;;34.00;43.80;;;;;;5032798;28;20044;-13
2022/07/23 08:16:31;;;;;;;17.80;15.93;;;34.40;42.60;;;;;;5032506;28;20021;-12
2022/07/23 08:18:57;;;;;;;18.63;16.52;;;34.60;41.80;;;;;;5036210;28;20026;-12
2022/07/23 08:21:23;;;;;;;17.90;15.90;;;34.70;41.00;;;;;;5036930;28;20031;-12
2022/07/23 08:23:49;;;;;;;17.65;15.55;;;34.90;40.80;;;;;;5036537;28;20103;-12
2022/07/23 08:26:15;;;;;;;18.02;16.33;;;35.10;40.40;;;;;;5035156;28;20025;-13
2022/07/23 08:28:40;;;;;;;17.77;14.27;;;35.30;39.60;;;;;;5036885;28;20036;-12
2022/07/23 08:31:06;;;;;;;17.13;14.73;;;35.50;39.60;;;;;;5036712;28;20064;-13
2022/07/23 08:33:32;;;;;;;17.52;15.63;;;35.70;39.40;;;;;;5036373;28;20022;-11
2022/07/23 08:35:59;;;;;;;19.52;15.88;;;35.90;38.80;;;;;;5036603;28;20029;-12
2022/07/23 08:38:25;;;;;;;20.52;17.13;;;36.10;38.60;;;;;;5035913;28;20107;-13
2022/07/23 08:40:53;;;;;;;20.85;15.90;;;36.30;38.00;;;;;;5036548;28;20389;-12
2022/07/23 08:43:28;;;;;;;17.88;16.17;;;36.50;37.60;;;;;;5036649;28;20033;-13
2022/07/23 08:45:59;;;;;;;16.77;15.07;;;36.50;35.80;;;;;;5035029;28;20385;-13
2022/07/23 08:48:28;;;;;;;17.48;15.68;;;36.40;37.20;;;;;;5036132;28;20033;-13
2022/07/23 08:50:57;;;;;;;18.08;15.80;;;36.20;37.40;;;;;;5036082;28;20035;-12
2022/07/23 08:53:24;;;;;;;16.75;14.95;;;36.10;37.60;;;;;;5036236;28;20025;-12
2022/07/23 08:55:53;;;;;;;18.25;16.27;;;36.30;36.80;;;;;;5035016;28;20028;-12
2022/07/23 08:58:19;;;;;;;20.85;14.98;;;36.50;36.70;;;;;;5036012;28;20124;-13
2022/07/23 09:00:49;;;;;;;16.30;14.60;;;36.50;37.10;;;;;;5035848;28;20029;-13
2022/07/23 09:03:21;;;;;;;16.67;14.25;;;36.50;37.40;;;;;;5035734;28;20029;-13
2022/07/23 09:05:50;;;;;;;16.10;14.38;;;36.50;37.60;;;;;;5035788;28;20028;-13
2022/07/23 09:08:19;;;;;;;16.40;14.80;;;36.90;36.90;;;;;;5035626;28;20034;-14
2022/07/23 09:10:56;;;;;;;18.92;14.38;;;37.10;36.80;;;;;;5035715;28;20409;-13
2022/07/23 09:13:32;;;;;;;16.58;14.88;;;37.40;36.60;;;;;;5035675;28;20029;-13
2022/07/23 09:16:02;;;;;;;17.00;15.20;;;37.70;35.40;;;;;;5035655;28;20021;-13
2022/07/23 09:18:30;;;;;;;20.38;16.90;;;38.00;35.50;;;;;;5035258;28;20036;-12
2022/07/23 09:21:20;;;;;;;17.55;15.85;;;38.20;34.50;;;;;;5035737;28;20382;-13
2022/07/23 09:23:53;;;;;;;22.13;16.50;;;38.20;34.30;;;;;;5035825;28;20037;-12
2022/07/23 09:26:34;;;;;;;20.67;16.55;;;38.30;33.70;;;;;;5035268;28;20037;-13
2022/07/23 09:29:02;;;;;;;18.33;16.08;;;38.20;32.80;;;;;;5035410;28;20091;-13
2022/07/23 09:31:50;;;;;;;18.90;17.05;;;38.50;33.00;;;;;;5035633;28;20048;-13
2022/07/23 09:34:23;;;;;;;18.30;14.90;;;38.80;32.60;;;;;;5035351;28;20053;-13
2022/07/23 09:36:51;;;;;;;17.83;15.88;;;38.90;32.40;;;;;;5035535;28;20029;-13
2022/07/23 09:39:26;;;;;;;17.95;16.13;;;39.20;32.70;;;;;;5034974;28;20045;-13
2022/07/23 09:41:52;;;;;;;19.20;17.25;;;39.40;32.20;;;;;;5035720;28;20068;-12
2022/07/23 09:44:19;;;;;;;17.95;16.15;;;39.40;31.70;;;;;;5035009;28;20435;-12
2022/07/23 09:46:48;;;;;;;16.98;15.32;;;39.40;31.50;;;;;;5033715;28;20029;-13
2022/07/23 09:49:22;;;;;;;17.50;15.18;;;39.70;30.30;;;;;;5034905;28;20486;-13
2022/07/23 09:51:51;;;;;;;15.95;14.45;;;39.90;29.20;;;;;;5035318;28;20036;-13
2022/07/23 09:54:33;;;;;;;15.48;13.20;;;40.20;28.60;;;;;;5034707;28;20044;-13
2022/07/23 09:57:17;;;;;;;19.08;14.88;;;40.40;27.80;;;;;;5034886;28;20113;-12
2022/07/23 09:59:47;;;;;;;15.02;13.48;;;40.50;27.00;;;;;;5035082;28;20474;-12
2022/07/23 10:02:14;;;;;;;16.50;14.45;;;40.70;28.30;;;;;;5033533;28;20075;-14
2022/07/23 10:04:41;;;;;;;15.18;13.68;;;41.00;28.20;;;;;;5035011;28;20041;-12
2022/07/23 10:07:10;;;;;;;15.80;13.82;;;41.30;28.20;;;;;;5034665;28;20037;-12
2022/07/23 10:09:38;;;;;;;15.93;13.50;;;41.60;28.20;;;;;;5034756;28;20079;-13
2022/07/23 10:14:40;;;;;;;14.20;12.68;;;41.90;27.90;;;;;;5035395;28;20494;-13
2022/07/23 10:17:07;;;;;;;14.50;12.05;;;42.10;27.80;;;;;;5034358;28;20393;-12
2022/07/23 10:19:34;;;;;;;15.43;11.80;;;42.20;27.40;;;;;;5034327;28;20025;-12
2022/07/23 10:22:19;;;;;;;14.93;13.27;;;42.10;27.40;;;;;;5034388;28;20033;-12
2022/07/23 10:25:26;;;;;;;13.82;12.32;;;41.90;26.90;;;;;;5034699;28;20109;-13
2022/07/23 10:28:18;;;;;;;14.80;13.30;;;41.90;27.60;;;;;;5034518;28;20025;-12
2022/07/23 10:31:07;;;;;;;;;;;42.10;26.50;;;;;;5035033;28;20034;-13
2022/07/23 10:33:51;;;;;;;14.07;12.55;;;42.20;27.20;;;;;;5034219;28;19952;-13
2022/07/23 10:36:40;;;;;;;12.05;10.50;;;42.40;27.00;;;;;;5034006;28;20025;-13
2022/07/23 10:39:17;;;;;;;12.77;10.55;;;42.40;26.40;;;;;;5032649;28;20038;-13
2022/07/23 10:41:43;;;;;;;11.90;10.80;;;42.60;26.40;;;;;;5033660;28;20028;-13
2022/07/23 10:44:10;;;;;;;12.48;11.18;;;42.90;26.10;;;;;;5034340;28;20025;-12
2022/07/23 10:49:46;;;;;;;12.50;10.15;;;43.20;25.50;;;;;;5033873;28;20527;-13
2022/07/23 10:52:15;;;;;;;11.07;9.82;;;43.30;24.80;;;;;;5033875;28;20033;-13
2022/07/23 10:54:42;;;;;;;11.27;10.18;;;43.60;24.30;;;;;;5034258;28;20022;-13
2022/07/23 10:57:09;;;;;;;11.05;9.68;;;43.70;24.10;;;;;;5033974;28;20935;-13
2022/07/23 11:00:12;;;;;;;10.55;9.30;;;44.00;24.40;;;;;;5033890;28;20489;-13
2022/07/23 11:02:40;;;;;;;9.65;8.55;;;44.40;23.90;;;;;;5033363;28;20034;-13
2022/07/23 11:05:09;;;;;;;9.07;8.18;;;44.90;23.20;;;;;;5033566;28;20071;-13
2022/07/23 11:07:36;;;;;;;9.93;7.72;;;45.20;22.90;;;;;;5033513;28;20021;-13
2022/07/23 11:10:04;;;;;;;11.00;8.82;;;45.50;21.90;;;;;;5033721;28;20048;-13
2022/07/23 11:12:30;;;;;;;9.65;8.65;;;45.80;21.40;;;;;;5033330;28;20026;-13
2022/07/23 11:15:01;;;;;;;9.68;8.63;;;45.90;20.70;;;;;;5033890;28;20036;-13
2022/07/23 11:17:28;;;;;;;;;;;46.00;21.40;;;;;;5032590;28;20030;-13
2022/07/23 11:20:15;;;;;;;10.48;9.13;;;46.10;21.60;;;;;;5033397;28;19912;-13
2022/07/23 11:22:44;;;;;;;9.82;8.93;;;46.40;22.00;;;;;;5033282;28;20022;-13
2022/07/23 11:25:11;;;;;;;10.35;8.68;;;46.70;22.00;;;;;;5033234;28;20036;-13
2022/07/23 11:27:42;;;;;;;9.32;8.43;;;47.10;22.10;;;;;;5033541;28;20075;-13
2022/07/23 11:30:09;;;;;;;10.27;7.53;;;47.40;21.60;;;;;;5033371;28;20034;-13
2022/07/23 11:32:38;;;;;;;9.85;7.70;;;47.60;21.10;;;;;;5032903;28;20033;-13
2022/07/23 11:35:25;;;;;;;9.23;8.30;;;47.90;20.40;;;;;;5033543;28;20481;-13
2022/07/23 11:37:58;;;;;;;8.88;7.97;;;48.10;20.40;;;;;;5032843;28;20048;-13
2022/07/23 11:40:25;;;;;;;8.65;7.75;;;48.20;19.80;;;;;;5032918;28;20104;-13
2022/07/23 11:43:04;;;;;;;9.25;8.27;;;48.00;20.00;;;;;;5033025;28;20458;-13
2022/07/23 11:45:34;;;;;;;10.27;8.00;;;47.90;19.50;;;;;;5033322;28;20079;-13
2022/07/23 11:48:00;;;;;;;9.63;8.70;;;47.90;20.30;;;;;;5033157;28;20037;-12
2022/07/23 11:50:26;;;;;;;9.20;8.02;;;47.90;20.40;;;;;;5032901;28;20026;-12
2022/07/23 11:52:54;;;;;;;8.98;7.78;;;47.90;20.60;;;;;;5034931;28;20060;-12
2022/07/23 11:55:20;;;;;;;10.48;8.52;;;47.80;20.50;;;;;;5037454;28;20393;-12
2022/07/23 11:57:47;;;;;;;10.02;8.65;;;47.50;20.60;;;;;;5037090;28;20032;-12
2022/07/23 12:00:22;;;;;;;10.20;8.73;;;47.40;20.80;;;;;;5035716;28;20017;-12
2022/07/23 12:02:52;;;;;;;8.65;7.75;;;47.50;20.40;;;;;;5036897;28;20057;-13
2022/07/23 12:05:25;;;;;;;8.93;7.72;;;47.60;20.80;;;;;;5037309;28;20053;-13
2022/07/23 12:07:53;;;;;;;12.30;8.50;;;48.00;20.90;;;;;;5036924;28;20100;-12
2022/07/23 12:10:23;;;;;;;11.00;8.48;;;48.30;20.40;;;;;;5036611;28;20025;-12
2022/07/23 12:12:52;;;;;;;9.75;8.75;;;48.40;19.90;;;;;;5037139;28;20523;-12
2022/07/23 12:15:23;;;;;;;9.52;8.45;;;48.30;20.70;;;;;;5036747;28;20040;-12
2022/07/23 12:17:50;;;;;;;10.20;9.07;;;48.40;20.70;;;;;;5036897;28;20627;-12
2022/07/23 12:20:20;;;;;;;11.00;8.63;;;48.40;20.40;;;;;;5036571;28;20044;-14
2022/07/23 12:22:49;;;;;;;9.82;8.82;;;48.20;21.00;;;;;;5036918;28;20041;-13
2022/07/23 12:25:20;;;;;;;9.52;7.78;;;47.80;20.90;;;;;;5037044;28;20021;-13
2022/07/23 12:27:58;;;;;;;8.30;6.95;;;47.90;20.30;;;;;;5036482;28;20034;-12
2022/07/23 12:30:25;;;;;;;7.60;6.60;;;47.90;19.50;;;;;;5036349;28;20040;-12
2022/07/23 12:32:54;;;;;;;6.72;6.13;;;48.10;19.50;;;;;;5035099;28;20029;-12
2022/07/23 12:35:22;;;;;;;10.15;6.65;;;48.40;19.10;;;;;;5036338;28;20385;-13
2022/07/23 12:37:55;;;;;;;8.35;7.18;;;48.80;19.20;;;;;;5036100;28;20029;-13
2022/07/23 12:40:26;;;;;;;9.65;7.22;;;49.00;19.00;;;;;;5036128;28;20025;-13